LiveATC.Net - Listen to live air traffic control over the Internet! Contact LiveATC.net for advertising information

NOTICE

Unauthorized use prohibited. See LiveATC.net Terms of Service



ICAO: CYQI  IATA: YQI   Airport: Yarmouth Airport
City: Yarmouth   State/Province: Nova Scotia
Country: Canada   Continent: North America
CYQI METAR Weather: CYQI 100200Z 36006KT 15SM OVC035 M03/M05 A2948 RMK SC8 SLP986
CYQI Flight Activity (FlightAware)
CYQI Airport Info   (AirNav) (iFlightPlanner)

CYQI/CZQM CTAF/FIC/Center
Feed Status: UP   Listeners: 0
Listen right in your browser - requires Flash (in browser, requires Flash)
Click here to listen with your own player (launches your MP3 player)
CYQI/CZQM CTAF/FIC/Center Audio Archives
FacilityFrequency
Halifax FIC123.550
Moncton Approach/Departure119.200
Moncton Center (Digby Sector - Moncton)132.200
Moncton Center (Digby Sector)123.900
Moncton Center (TUSKY/BRADD Sector)135.200
Moncton Center (Vitol Sector)128.375
Moncton Center (WHALE /KANNI Sector)132.975
Yarmouth CTAF/UNICOM123.000

ICAO: KDEN  IATA: DEN   Airport: Denver International Airport
City: Denver   State/Province: Colorado
Country: United States   Continent: North America
KDEN METAR Weather: KDEN 100153Z 21010KT 10SM CLR 04/M05 A3028 RMK AO2 SLP253 T00441050
KDEN Flight Activity (FlightAware)
KDEN Airport Info   (AirNav) (iFlightPlanner)

ZDV Denver Center (Low)
Feed Status: UP   Listeners: 0
Listen right in your browser - requires Flash (in browser, requires Flash)
Click here to listen with your own player (launches your MP3 player)
ZDV Denver Center (Low) Audio Archives
FacilityFrequency
Denver Center (Sector 06 Low)128.650
Denver Center (Sector 11 North Low)120.475
Denver Center (Sector 12 Low)125.350
Denver Center (Sector 13 Low)126.500
Denver Center (Sector 15 Low)118.475
Denver Center (Sector 21 Low)125.900
Denver Center (Sector 26 Low)119.850
Denver Center (Sector 36 Low)118.575
Denver Center (Sector 41 Low)128.375

ICAO: KPUB  IATA: PUB   Airport: Pueblo Memorial Airport
City: Pueblo   State/Province: Colorado
Country: United States   Continent: North America
KPUB METAR Weather: KPUB 100153Z AUTO 00000KT 10SM CLR 04/M04 A3031 RMK AO2 SLP284 T00441044
KPUB Flight Activity (FlightAware)
KPUB Airport Info   (AirNav) (iFlightPlanner)

ZDV Pueblo Low
Feed Status: UP   Listeners: 0
Listen right in your browser - requires Flash (in browser, requires Flash)
Click here to listen with your own player (launches your MP3 player)
ZDV Pueblo Low Audio Archives
FacilityFrequency
Denver Center (Pueblo Low Sector)128.375

NOTICE

Unauthorized use prohibited. See LiveATC.net Terms of Service


Find LiveATC Audio Streams


Airport/ARTCC Code

Frequency
(e.g., 124.400, 128.75)
Site-wide search

Browse LiveATC Feeds
LiveATC Coverage Map
Top 50 LiveATC Feeds
Bad Weather Areas

LiveATC FAQ
Offer a LiveATC Feed
Contact LiveATC.net
Press Inquiries

LiveATC on iPhone
LiveATC on Android

Windows Phone
Windows 8/10

LiveATC Mobile
(Mobile browser)

ATC Audio Archives
Interesting Recordings

LiveATC Forums


Home Page
About LiveATC.net
Make a Donation
LiveATC Store

Terms of Use
Privacy Policy

Canadian Air Freqs

AIRMETs/SIGMETs

FAA Airport Status
Nat'l Airspace Status
Arrival Demand Charts


Server Software By:
Icecast.org
Liquidsoap

Please make a donation to help us keep growing!